EGLLLSZA

Guest
Details From EGLL - London Heathrow
To LSZA - Lugano
Flight Number -
Tags decoded
Created
Modified
Stats Distance 518 nm / 959 km
Max Altitude 0 ft / 0 m
Waypoints 5
Social Downloads 1
Likes 0
Share VATSIM

Download

Looking for another format? Having issues loading an existing format? Contact us
Advertisement - Login to hide

Notes

Requested: EGLL KOTUN IXORA ZA552 LSZA

Route

EGLL KOTUN IXORA ZA552 LSZA

ID Type Via Altitude Latitude Longitude Leg Dist Tot Dist Heading (true) Name
O EGLL APT - 0 ft / 0 m 51.47122˚ -0.46098˚ - 0 nm - London Heathrow
KOTUN FIX - 0 ft / 0 m 48.72444˚ 3.87111˚ 234 nm 234 nm 133° / 136° -
IXORA FIX - 0 ft / 0 m 45.83667˚ 8.58889˚ 258 nm 493 nm 130° / 134° -
ZA552 FIX - 0 ft / 0 m 45.77139˚ 8.79694˚ 9 nm 502 nm 114° / 114° -
O LSZA APT - 0 ft / 0 m 46.00427˚ 8.91058˚ 14 nm 517 nm 19° / 19° Lugano

Altitude Profile

Advertisement - Login to hide

Weather


0- 5 10 15 20 25 30 35+ Temperature / ° C

Clouds and Precipitation
Forecast for 2018-05-26 00:00 UTC. Updated 4 hours ago

Ground ~20,000 ft ~40,000 ft Winds

EGLL

Details ICAO EGLL (LHR)
Name London Heathrow
Region United Kingdom
Timezone Europe/London (UTC+1.0)
Stats Elevation 83 ft / 25 m (AMSL)
Location 51.471218° -0.460978°
Runways 2
Magnetic Variation 0.494° W

METAR

EGLL 260250Z AUTO 04005KT 010V080 2300 HZ BKN004 OVC007 15/14 Q1019 TEMPO BKN005

Decode

TAF

TAF AMD TAF AMD EGLL 260317Z 2603/2706 02005KT 2500 HZ BKN006 TEMPO 2603/2609 BKN004 PROB30 TEMPO 2604/2610 +SHRA BECMG 2609/2612 08012KT 9999 NSW SCT020 PROB40 TEMPO 2620/2706 08015G25KT 3000 +TSRA BKN014 BKN048CB

Decode

Departure Runways

ID Width Length Bearing (true) Bearing (mag) Surface Threshold Offset Overrun Length
09L 164 ft / 50 m 12,811 ft / 3,905 m 89.64° 90.13° Asphalt 1,004 ft / 306 m 0 ft / 0 m
09R 164 ft / 50 m 12,019 ft / 3,663 m 89.67° 90.16° Asphalt 1,007 ft / 307 m 0 ft / 0 m
27L 164 ft / 50 m 12,019 ft / 3,663 m 269.71° 270.20° Asphalt 0 ft / 0 m 69 ft / 21 m
27R 164 ft / 50 m 12,811 ft / 3,905 m 269.69° 270.18° Asphalt 0 ft / 0 m 69 ft / 21 m

LSZA

Details ICAO LSZA (LUG)
Name Lugano
Region Switzerland
Timezone Europe/Zurich (UTC+2.0)
Stats Elevation 915 ft / 279 m (AMSL)
Location 46.004275° 8.910579°
Runways 1
Magnetic Variation 2.476° E

METAR

LSZA 260250Z AUTO VRB01KT CAVOK 15/14 Q1019

Decode

TAF

Not found

Destination Runways

ID Width Length Bearing (true) Bearing (mag) Surface Threshold Offset Overrun Length
01 98 ft / 30 m 4,430 ft / 1,350 m 18.79° 16.31° Asphalt 361 ft / 110 m 0 ft / 0 m
19 98 ft / 30 m 4,430 ft / 1,350 m 198.79° 196.31° Asphalt 673 ft / 205 m 0 ft / 0 m

Approach Navaids

Runway Type Ident Frequency Range Bearing (true) Bearing (mag) Slope Elevation
01 Localiser ILU 111.50 MHz 18 nm / 33 km 18.79° 16.31° - 928 ft / 283 m (AMSL)
01 Glidescope ILU 111.50 MHz 10 nm / 19 km 19.99° 17.51° 6.00° 928 ft / 283 m (AMSL)
01 DME ILU 111.50 MHz 18 nm / 33 km - - - 928 ft / 283 m (AMSL)

Popular Alternatives